Terminal Aerodrome Forecast
Issued by NWS Pueblo, CO

Home | Current Version | Previous Version | Text Only | Print | Product List | Glossary On
Versions: 1 2 3 4 5 6 7 8 9 10 11 12 13 14 15 16 17 18 19
000
FTUS45 KPUB 260227 AAA
TAFALS
TAF AMD
KALS 260227Z 2602/2624 09013G23KT P6SM SCT070 BKN150
     FM260400 11010KT P6SM SCT100
     FM260900 VRB05KT P6SM SCT100
     FM262000 28010KT P6SM SCT100 SCT200=

USA.gov is the U.S. government's official web portal to all federal, state and local government web resources and services.